Time;durP1;ratioP1;P1;durP2;ratioP2;P2;SDS_P1;SDS_P2;PMS_P1;PMS_P2;Temp;Humidity;BMP_temperature;BMP_pressure;BME280_temperature;BME280_humidity;BME280_pressure;Samples;Min_cycle;Max_cycle;Signal;HPM_P1;HPM_P2
2022/03/20 00:00:53;;;;;;;14.30;8.45;;;;;;;;;;5033736;28;20053;-89
2022/03/20 00:03:21;;;;;;;13.27;8.40;;;;;;;;;;5028364;28;20171;-89
2022/03/20 00:05:48;;;;;;;11.85;8.25;;;;;;;;;;5013566;28;20417;-88
2022/03/20 00:08:14;;;;;;;14.45;8.50;;;;;;;;;;5013288;28;20045;-88
2022/03/20 00:10:45;;;;;;;16.98;8.70;;;;;;;;;;5013354;28;20044;-89
2022/03/20 00:13:12;;;;;;;15.60;8.82;;;;;;;;;;5032147;28;20041;-89
2022/03/20 00:15:42;;;;;;;12.25;7.50;;;;;;;;;;5033557;28;20068;-89
2022/03/20 00:18:09;;;;;;;16.27;8.90;;;;;;;;;;5033434;28;20045;-88
2022/03/20 00:20:35;;;;;;;14.77;8.88;;;;;;;;;;5033845;28;20132;-89
2022/03/20 00:23:04;;;;;;;13.05;8.00;;;;;;;;;;5033510;28;20042;-89
2022/03/20 00:25:31;;;;;;;13.80;8.40;;;;;;;;;;5032411;28;20115;-89
2022/03/20 00:27:57;;;;;;;13.55;8.27;;;;;;;;;;5015261;28;20073;-89
2022/03/20 00:30:23;;;;;;;11.48;7.50;;;;;;;;;;4999581;28;20034;-90
2022/03/20 00:32:49;;;;;;;15.63;8.85;;;;;;;;;;5012960;28;20518;-89
2022/03/20 00:35:15;;;;;;;13.15;8.27;;;;;;;;;;5012939;28;20042;-88
2022/03/20 00:37:41;;;;;;;13.43;7.72;;;;;;;;;;5012917;28;20645;-88
2022/03/20 00:40:08;;;;;;;15.45;8.75;;;;;;;;;;5013853;28;20045;-89
2022/03/20 00:42:34;;;;;;;14.40;8.68;;;;;;;;;;5012587;28;20536;-86
2022/03/20 00:45:00;;;;;;;12.95;7.43;;;;;;;;;;5012905;28;20410;-87
2022/03/20 00:47:26;;;;;;;12.32;7.75;;;;;;;;;;5012998;28;20038;-89
2022/03/20 00:49:52;;;;;;;13.07;7.90;;;;;;;;;;5013390;28;20370;-89
2022/03/20 00:52:18;;;;;;;14.13;7.97;;;;;;;;;;5012844;28;20128;-88
2022/03/20 00:54:44;;;;;;;12.63;7.95;;;;;;;;;;5012855;28;20128;-88
2022/03/20 00:57:10;;;;;;;11.55;7.97;;;;;;;;;;5012848;28;20042;-89
2022/03/20 00:59:35;;;;;;;14.90;8.18;;;;;;;;;;5012947;28;20547;-87
2022/03/20 01:02:01;;;;;;;12.18;8.02;;;;;;;;;;5012821;28;20204;-88
2022/03/20 01:04:28;;;;;;;13.80;8.05;;;;;;;;;;5013102;28;20034;-89
2022/03/20 01:06:57;;;;;;;12.95;8.75;;;;;;;;;;5012640;28;20076;-90
2022/03/20 01:09:22;;;;;;;14.30;8.50;;;;;;;;;;5012710;28;20042;-88
2022/03/20 01:11:49;;;;;;;17.27;8.07;;;;;;;;;;5012142;28;20046;-89
2022/03/20 01:14:15;;;;;;;16.27;8.15;;;;;;;;;;5018587;28;20033;-88
2022/03/20 01:16:41;;;;;;;13.50;8.38;;;;;;;;;;5032293;28;20041;-89
2022/03/20 01:19:06;;;;;;;16.95;8.95;;;;;;;;;;5032171;28;20535;-89
2022/03/20 01:21:32;;;;;;;17.52;8.85;;;;;;;;;;5031630;28;20044;-89
2022/03/20 01:23:58;;;;;;;15.77;8.52;;;;;;;;;;5032339;28;20088;-88
2022/03/20 01:26:25;;;;;;;15.45;8.38;;;;;;;;;;5032206;28;20080;-89
2022/03/20 01:28:50;;;;;;;14.63;9.02;;;;;;;;;;5031685;28;20045;-90
2022/03/20 01:31:16;;;;;;;15.02;9.23;;;;;;;;;;5031872;28;20394;-89
2022/03/20 01:33:43;;;;;;;14.98;8.77;;;;;;;;;;5032202;28;20057;-89
2022/03/20 01:36:09;;;;;;;15.82;9.15;;;;;;;;;;5032435;28;20517;-88
2022/03/20 01:38:35;;;;;;;15.48;8.88;;;;;;;;;;5031777;28;20049;-89
2022/03/20 01:41:01;;;;;;;15.85;9.40;;;;;;;;;;5031642;28;20416;-89
2022/03/20 01:43:27;;;;;;;13.32;8.15;;;;;;;;;;5032150;28;20516;-87
2022/03/20 01:45:53;;;;;;;15.25;9.45;;;;;;;;;;5032217;28;20041;-88
2022/03/20 01:48:19;;;;;;;15.52;9.73;;;;;;;;;;5031585;28;20041;-89
2022/03/20 01:50:45;;;;;;;15.05;9.05;;;;;;;;;;5031575;28;20055;-89
2022/03/20 01:53:11;;;;;;;14.05;9.10;;;;;;;;;;5028749;28;20041;-88
2022/03/20 01:55:37;;;;;;;14.20;8.85;;;;;;;;;;5011833;28;20052;-88
2022/03/20 01:58:03;;;;;;;15.55;8.50;;;;;;;;;;5012116;28;20104;-88
2022/03/20 02:00:31;;;;;;;17.50;10.32;;;;;;;;;;5012051;28;20042;-88
2022/03/20 02:02:57;;;;;;;15.48;9.00;;;;;;;;;;5028570;28;20057;-88
2022/03/20 02:05:23;;;;;;;13.55;9.35;;;;;;;;;;5011532;28;20041;-89
2022/03/20 02:07:49;;;;;;;18.05;9.52;;;;;;;;;;5011624;28;20129;-89
2022/03/20 02:10:16;;;;;;;17.52;10.27;;;;;;;;;;5011816;28;20045;-88
2022/03/20 02:12:42;;;;;;;13.57;9.43;;;;;;;;;;5011720;28;20084;-88
2022/03/20 02:15:09;;;;;;;16.60;9.48;;;;;;;;;;5011418;28;20041;-88
2022/03/20 02:17:36;;;;;;;16.58;10.88;;;;;;;;;;5011717;28;20076;-88
2022/03/20 02:20:04;;;;;;;15.45;9.48;;;;;;;;;;5028448;28;20056;-89
2022/03/20 02:22:33;;;;;;;15.77;9.50;;;;;;;;;;5011163;28;20104;-89
2022/03/20 02:25:05;;;;;;;17.90;10.82;;;;;;;;;;5024110;28;20061;-88
2022/03/20 02:27:32;;;;;;;14.82;9.98;;;;;;;;;;5018644;28;20156;-88
2022/03/20 02:29:59;;;;;;;18.02;11.02;;;;;;;;;;5035656;28;20045;-88
2022/03/20 02:32:27;;;;;;;16.73;10.57;;;;;;;;;;5019026;28;20496;-89
2022/03/20 02:34:53;;;;;;;16.55;9.60;;;;;;;;;;5018533;28;20049;-88
2022/03/20 02:37:20;;;;;;;19.30;10.68;;;;;;;;;;5034788;28;20045;-89
2022/03/20 02:39:46;;;;;;;16.45;10.43;;;;;;;;;;5021238;28;20044;-91
2022/03/20 02:42:13;;;;;;;17.60;11.80;;;;;;;;;;5049497;28;20136;-88
2022/03/20 02:44:49;;;;;;;20.13;12.57;;;;;;;;;;5035317;28;20045;-89
2022/03/20 02:47:25;;;;;;;18.48;11.65;;;;;;;;;;5035171;28;20055;-88
2022/03/20 02:50:11;;;;;;;18.02;12.13;;;;;;;;;;5035305;28;20045;-88
2022/03/20 02:52:56;;;;;;;18.73;10.65;;;;;;;;;;5018607;28;20048;-88
2022/03/20 02:55:29;;;;;;;19.98;12.18;;;;;;;;;;5034731;28;20034;-89
2022/03/20 02:57:56;;;;;;;16.98;11.35;;;;;;;;;;5034772;28;20037;-88
2022/03/20 03:00:28;;;;;;;20.83;11.10;;;;;;;;;;5035198;28;20045;-87
2022/03/20 03:02:55;;;;;;;21.88;11.48;;;;;;;;;;5035196;28;20083;-90
2022/03/20 03:05:22;;;;;;;18.27;11.85;;;;;;;;;;5034783;28;20511;-88
2022/03/20 03:13:18;;;;;;;20.45;11.93;;;;;;;;;;5034129;28;19916;-88
2022/03/20 03:15:44;;;;;;;19.10;12.00;;;;;;;;;;5034254;28;20095;-88
2022/03/20 03:18:10;;;;;;;20.25;12.70;;;;;;;;;;5034138;28;20404;-87
2022/03/20 03:20:37;;;;;;;21.38;12.98;;;;;;;;;;5034398;28;20045;-88
2022/03/20 03:23:03;;;;;;;19.33;11.98;;;;;;;;;;5034478;28;20129;-88
2022/03/20 03:25:31;;;;;;;19.63;12.27;;;;;;;;;;5032820;28;20058;-88
2022/03/20 03:27:57;;;;;;;20.10;12.70;;;;;;;;;;5033212;28;20654;-89
2022/03/20 03:30:25;;;;;;;21.98;12.48;;;;;;;;;;5032462;28;20033;-88
2022/03/20 03:32:51;;;;;;;22.52;13.63;;;;;;;;;;5032810;28;20644;-87
2022/03/20 03:38:03;;;;;;;20.55;13.57;;;;;;;;;;5032407;28;20049;-88
2022/03/20 03:40:30;;;;;;;19.45;13.65;;;;;;;;;;5032579;28;20095;-88
2022/03/20 03:42:56;;;;;;;20.83;13.40;;;;;;;;;;5032317;28;20064;-88
2022/03/20 03:45:23;;;;;;;21.63;13.30;;;;;;;;;;5029340;28;20049;-90
2022/03/20 03:47:49;;;;;;;22.23;13.82;;;;;;;;;;5012644;28;20054;-87
2022/03/20 03:50:15;;;;;;;20.52;13.88;;;;;;;;;;5020651;28;20045;-87
2022/03/20 03:52:41;;;;;;;21.10;12.50;;;;;;;;;;5012236;28;20034;-88
2022/03/20 03:55:07;;;;;;;17.98;12.77;;;;;;;;;;5012816;28;20038;-89
2022/03/20 03:57:33;;;;;;;21.02;13.68;;;;;;;;;;4996304;28;20100;-88
2022/03/20 03:59:59;;;;;;;23.48;14.98;;;;;;;;;;5012787;28;20433;-89
2022/03/20 04:02:25;;;;;;;21.90;14.40;;;;;;;;;;4996235;28;20084;-87
2022/03/20 04:04:51;;;;;;;21.77;14.70;;;;;;;;;;4996205;28;20081;-88
2022/03/20 04:07:18;;;;;;;21.67;14.38;;;;;;;;;;5012605;28;20081;-88
2022/03/20 04:09:45;;;;;;;21.88;14.63;;;;;;;;;;4996610;28;20041;-89
2022/03/20 04:12:15;;;;;;;23.38;14.73;;;;;;;;;;5012315;28;20052;-89
2022/03/20 04:14:41;;;;;;;23.70;15.50;;;;;;;;;;4996402;28;20041;-88
2022/03/20 04:17:07;;;;;;;22.55;15.52;;;;;;;;;;4996442;28;20041;-88
2022/03/20 04:19:34;;;;;;;21.38;15.02;;;;;;;;;;4996276;28;20128;-88
2022/03/20 04:22:00;;;;;;;24.13;14.98;;;;;;;;;;5012644;28;20141;-88
2022/03/20 04:24:27;;;;;;;22.95;14.88;;;;;;;;;;4959315;28;1063233;-89
2022/03/20 04:26:54;;;;;;;23.42;16.83;;;;;;;;;;5014581;28;20049;-88
2022/03/20 04:29:20;;;;;;;25.10;15.18;;;;;;;;;;5032881;28;20038;-88
2022/03/20 04:31:47;;;;;;;24.00;16.42;;;;;;;;;;5015974;28;20041;-88
2022/03/20 04:34:13;;;;;;;23.67;15.05;;;;;;;;;;5030505;28;20037;-87
2022/03/20 04:36:39;;;;;;;24.05;15.63;;;;;;;;;;4996792;28;20128;-88
2022/03/20 04:39:05;;;;;;;24.83;15.90;;;;;;;;;;4996473;28;20049;-89
2022/03/20 04:41:31;;;;;;;27.55;15.95;;;;;;;;;;4997005;28;20132;-88
2022/03/20 04:43:58;;;;;;;19.42;14.73;;;;;;;;;;4996330;28;20125;-88
2022/03/20 04:46:24;;;;;;;25.30;16.25;;;;;;;;;;5028026;28;20050;-89
2022/03/20 04:59:49;;;;;;;24.60;16.40;;;;;;;;;;5012072;28;20085;-87
2022/03/20 05:02:15;;;;;;;27.55;17.48;;;;;;;;;;5029401;28;20042;-88
2022/03/20 05:04:41;;;;;;;25.05;16.70;;;;;;;;;;5011800;28;20128;-88
2022/03/20 05:07:07;;;;;;;25.35;17.00;;;;;;;;;;5028291;28;20483;-88
2022/03/20 05:15:07;;;;;;;26.58;18.20;;;;;;;;;;5011942;28;20132;-88
2022/03/20 05:17:33;;;;;;;25.58;16.30;;;;;;;;;;5011722;28;20482;-88
2022/03/20 05:19:59;;;;;;;26.75;18.63;;;;;;;;;;5011778;28;20038;-88
2022/03/20 05:22:25;;;;;;;26.48;18.80;;;;;;;;;;5036233;28;20124;-87
2022/03/20 05:24:51;;;;;;;27.00;18.60;;;;;;;;;;5047694;28;20063;-89
2022/03/20 05:27:18;;;;;;;26.45;18.20;;;;;;;;;;5030996;28;20128;-88
2022/03/20 05:29:44;;;;;;;26.42;18.83;;;;;;;;;;5032078;28;20041;-88
2022/03/20 05:32:10;;;;;;;25.33;18.10;;;;;;;;;;5030849;28;20111;-88
2022/03/20 05:34:37;;;;;;;26.13;18.17;;;;;;;;;;5031586;28;20037;-87
2022/03/20 05:37:03;;;;;;;28.05;18.30;;;;;;;;;;5048016;28;20537;-88
2022/03/20 05:39:30;;;;;;;25.52;17.98;;;;;;;;;;5031359;28;20128;-87
2022/03/20 05:41:56;;;;;;;28.45;19.10;;;;;;;;;;5047450;28;20038;-88
2022/03/20 05:44:23;;;;;;;26.83;18.15;;;;;;;;;;5030926;28;20041;-87
2022/03/20 05:46:49;;;;;;;29.00;19.42;;;;;;;;;;5030679;28;20448;-86
2022/03/20 05:49:16;;;;;;;30.30;20.00;;;;;;;;;;5030394;28;20041;-89
2022/03/20 05:51:42;;;;;;;28.70;19.90;;;;;;;;;;5027140;28;20129;-88
2022/03/20 05:54:08;;;;;;;26.67;18.02;;;;;;;;;;5027180;28;20049;-87
2022/03/20 05:59:19;;;;;;;28.02;19.55;;;;;;;;;;5021317;28;20049;-87
2022/03/20 06:01:45;;;;;;;27.85;19.35;;;;;;;;;;5013657;28;20049;-87
2022/03/20 06:04:13;;;;;;;30.83;21.00;;;;;;;;;;5013608;28;20080;-87
2022/03/20 06:06:40;;;;;;;29.77;20.10;;;;;;;;;;4997037;28;20464;-87
2022/03/20 06:09:06;;;;;;;28.33;20.23;;;;;;;;;;5010415;28;20486;-88
2022/03/20 06:11:34;;;;;;;28.67;19.35;;;;;;;;;;5018790;28;20048;-89
2022/03/20 06:14:00;;;;;;;28.85;19.48;;;;;;;;;;5029730;28;20467;-88
2022/03/20 06:16:28;;;;;;;29.40;19.65;;;;;;;;;;5030102;28;20091;-86
2022/03/20 06:18:54;;;;;;;25.60;19.13;;;;;;;;;;5029687;28;20043;-88
2022/03/20 06:21:20;;;;;;;29.42;20.50;;;;;;;;;;5030968;28;20041;-89
2022/03/20 06:23:46;;;;;;;32.05;20.00;;;;;;;;;;5029560;28;20038;-88
2022/03/20 06:26:12;;;;;;;28.98;19.75;;;;;;;;;;5030355;28;20409;-88
2022/03/20 06:28:40;;;;;;;28.27;19.60;;;;;;;;;;5010217;28;20042;-87
2022/03/20 06:31:06;;;;;;;28.90;19.33;;;;;;;;;;5018204;28;20508;-87
2022/03/20 06:33:36;;;;;;;29.33;20.35;;;;;;;;;;5029923;28;20037;-87
2022/03/20 06:36:02;;;;;;;30.08;20.20;;;;;;;;;;5029965;28;20171;-86
2022/03/20 06:38:30;;;;;;;33.78;22.05;;;;;;;;;;5030443;28;20049;-86
2022/03/20 06:40:56;;;;;;;30.88;20.55;;;;;;;;;;5023994;28;20401;-87
2022/03/20 06:43:23;;;;;;;27.83;19.27;;;;;;;;;;5026608;28;20041;-88
2022/03/20 06:45:50;;;;;;;29.23;20.15;;;;;;;;;;5026666;28;20050;-88
2022/03/20 06:48:16;;;;;;;30.67;20.50;;;;;;;;;;5010344;28;20052;-88
2022/03/20 06:50:42;;;;;;;28.38;19.73;;;;;;;;;;5010650;28;20121;-88
2022/03/20 06:53:08;;;;;;;30.98;20.65;;;;;;;;;;5027488;28;20046;-87
2022/03/20 06:55:35;;;;;;;30.75;20.73;;;;;;;;;;5030828;28;20096;-86
2022/03/20 06:58:01;;;;;;;28.48;20.52;;;;;;;;;;5013462;28;20184;-87
2022/03/20 07:00:30;;;;;;;30.73;21.00;;;;;;;;;;5029512;28;20042;-87
2022/03/20 07:02:58;;;;;;;30.05;21.08;;;;;;;;;;5013202;28;20644;-86
2022/03/20 07:05:24;;;;;;;29.38;21.50;;;;;;;;;;5013772;28;20088;-87
2022/03/20 07:07:51;;;;;;;30.17;20.63;;;;;;;;;;5013593;28;20044;-85
2022/03/20 07:10:21;;;;;;;29.42;20.00;;;;;;;;;;5020070;28;20034;-88
2022/03/20 07:12:47;;;;;;;32.50;20.67;;;;;;;;;;5016672;28;20037;-87
2022/03/20 07:15:13;;;;;;;31.65;21.40;;;;;;;;;;5032863;28;20527;-87
2022/03/20 07:17:40;;;;;;;31.77;21.75;;;;;;;;;;5016757;28;20041;-87
2022/03/20 07:20:09;;;;;;;31.13;21.00;;;;;;;;;;5033548;28;20558;-87
2022/03/20 07:22:36;;;;;;;30.42;21.02;;;;;;;;;;5016352;28;20038;-87
2022/03/20 07:30:32;;;;;;;30.58;20.77;;;;;;;;;;5013164;28;20041;-86
2022/03/20 07:32:58;;;;;;;32.45;22.27;;;;;;;;;;5030169;28;20042;-88
2022/03/20 07:35:25;;;;;;;28.38;21.85;;;;;;;;;;5033516;28;20068;-88
2022/03/20 07:37:52;;;;;;;32.38;21.75;;;;;;;;;;5026113;28;20040;-86
2022/03/20 07:40:18;;;;;;;29.52;21.20;;;;;;;;;;5053087;28;20037;-87
2022/03/20 07:42:44;;;;;;;29.13;20.95;;;;;;;;;;5054246;28;20043;-87
2022/03/20 07:45:10;;;;;;;31.30;20.88;;;;;;;;;;5062352;28;20042;-87
2022/03/20 07:47:36;;;;;;;29.25;20.42;;;;;;;;;;5014176;28;20046;-88
2022/03/20 07:50:04;;;;;;;30.05;20.60;;;;;;;;;;5035102;28;20037;-87
2022/03/20 07:52:30;;;;;;;29.17;20.52;;;;;;;;;;5057467;28;20087;-87
2022/03/20 07:54:56;;;;;;;29.65;20.30;;;;;;;;;;5051579;28;20037;-88
2022/03/20 07:57:22;;;;;;;29.13;21.20;;;;;;;;;;5053311;28;20036;-84
2022/03/20 07:59:48;;;;;;;29.30;20.08;;;;;;;;;;5070529;28;20051;-87
2022/03/20 08:02:14;;;;;;;29.75;22.13;;;;;;;;;;5053869;28;20402;-87
2022/03/20 08:04:40;;;;;;;28.92;20.77;;;;;;;;;;4997242;28;20092;-88
2022/03/20 08:07:06;;;;;;;32.17;21.42;;;;;;;;;;5030139;28;20409;-86
2022/03/20 08:09:32;;;;;;;30.35;19.90;;;;;;;;;;5029937;28;20120;-89
2022/03/20 08:11:59;;;;;;;27.65;19.92;;;;;;;;;;4997243;28;20041;-88
2022/03/20 08:14:25;;;;;;;28.80;20.85;;;;;;;;;;4997283;28;20482;-89
2022/03/20 08:16:51;;;;;;;29.92;21.40;;;;;;;;;;4997710;28;20042;-88
2022/03/20 08:19:19;;;;;;;30.17;21.73;;;;;;;;;;4997005;28;20054;-88
2022/03/20 08:21:48;;;;;;;30.92;21.65;;;;;;;;;;5028433;28;20046;-86
2022/03/20 08:24:14;;;;;;;31.67;20.67;;;;;;;;;;5029599;28;20062;-88
2022/03/20 08:26:40;;;;;;;29.20;20.73;;;;;;;;;;5030114;28;20504;-89
2022/03/20 08:29:12;;;;;;;27.25;19.90;;;;;;;;;;5016801;28;20060;-88
2022/03/20 08:31:40;;;;;;;29.40;21.42;;;;;;;;;;5031898;28;20408;-88
2022/03/20 08:34:06;;;;;;;29.05;21.27;;;;;;;;;;5017388;28;20033;-87
2022/03/20 08:36:34;;;;;;;28.10;20.10;;;;;;;;;;5016672;28;20400;-87
2022/03/20 08:39:00;;;;;;;29.98;20.67;;;;;;;;;;5024450;28;20073;-88
2022/03/20 08:41:26;;;;;;;29.45;20.60;;;;;;;;;;5013323;28;20046;-86
2022/03/20 08:43:52;;;;;;;28.95;21.45;;;;;;;;;;5013239;28;20413;-87
2022/03/20 08:46:18;;;;;;;31.38;21.45;;;;;;;;;;5027429;28;20045;-87
2022/03/20 08:48:44;;;;;;;31.27;20.40;;;;;;;;;;5032888;28;20505;-86
2022/03/20 08:51:10;;;;;;;30.65;21.60;;;;;;;;;;5043629;28;20079;-88
2022/03/20 08:53:37;;;;;;;31.35;22.25;;;;;;;;;;5037484;28;20078;-88
2022/03/20 08:56:03;;;;;;;28.80;20.58;;;;;;;;;;5036512;28;20045;-88
2022/03/20 08:58:29;;;;;;;31.95;20.65;;;;;;;;;;5033135;28;20049;-89
2022/03/20 09:00:57;;;;;;;31.30;21.90;;;;;;;;;;5038187;28;20040;-88
2022/03/20 09:03:24;;;;;;;30.90;22.60;;;;;;;;;;5048945;28;20052;-88
2022/03/20 09:05:50;;;;;;;30.05;21.20;;;;;;;;;;5049838;28;20044;-87
2022/03/20 09:08:16;;;;;;;29.75;23.00;;;;;;;;;;5023490;28;20064;-88
2022/03/20 09:10:42;;;;;;;31.13;21.85;;;;;;;;;;5025570;28;20078;-90
2022/03/20 09:13:09;;;;;;;30.35;21.65;;;;;;;;;;5035675;28;20054;-88
2022/03/20 09:15:35;;;;;;;31.02;21.50;;;;;;;;;;5037434;28;20041;-88
2022/03/20 09:20:46;;;;;;;30.40;21.52;;;;;;;;;;5052405;28;20053;-88
2022/03/20 09:23:13;;;;;;;26.92;19.95;;;;;;;;;;5015341;28;20042;-88
2022/03/20 09:25:39;;;;;;;31.15;21.45;;;;;;;;;;5032719;28;20115;-87
2022/03/20 09:28:06;;;;;;;27.23;20.48;;;;;;;;;;5050275;28;20041;-87
2022/03/20 09:30:33;;;;;;;28.90;21.27;;;;;;;;;;5062500;28;20037;-86
2022/03/20 09:33:02;;;;;;;29.30;22.35;;;;;;;;;;5030993;28;20132;-87
2022/03/20 09:35:28;;;;;;;27.42;21.15;;;;;;;;;;5031300;28;20042;-89
2022/03/20 09:37:54;;;;;;;26.30;20.88;;;;;;;;;;5041056;28;20034;-86
2022/03/20 09:40:22;;;;;;;30.58;21.67;;;;;;;;;;4995173;28;20515;-87
2022/03/20 09:42:48;;;;;;;30.67;22.33;;;;;;;;;;5014630;28;20052;-86
2022/03/20 09:45:17;;;;;;;29.50;22.40;;;;;;;;;;5046331;28;20041;-88
2022/03/20 09:47:43;;;;;;;31.67;23.08;;;;;;;;;;5029608;28;20230;-88
2022/03/20 09:50:10;;;;;;;30.70;22.02;;;;;;;;;;5029108;28;20102;-89
2022/03/20 09:52:37;;;;;;;27.90;22.23;;;;;;;;;;5028822;28;20044;-88
2022/03/20 09:55:04;;;;;;;31.85;22.70;;;;;;;;;;5065825;28;20037;-89
2022/03/20 09:57:30;;;;;;;31.00;23.63;;;;;;;;;;5038838;28;20038;-88
2022/03/20 09:59:56;;;;;;;29.63;22.35;;;;;;;;;;5020456;28;20041;-89
2022/03/20 10:02:25;;;;;;;29.98;22.70;;;;;;;;;;5036649;28;20072;-91
2022/03/20 10:04:59;;;;;;;27.88;21.48;;;;;;;;;;5029704;28;20426;-89
2022/03/20 10:07:28;;;;;;;26.73;21.83;;;;;;;;;;5021490;28;20061;-87
2022/03/20 10:10:12;;;;;;;28.00;22.70;;;;;;;;;;5025476;28;20038;-88
2022/03/20 10:12:41;;;;;;;27.45;22.23;;;;;;;;;;5019446;28;20047;-88
2022/03/20 10:15:09;;;;;;;28.23;23.35;;;;;;;;;;5059319;28;20042;-89
2022/03/20 10:17:36;;;;;;;31.17;23.40;;;;;;;;;;5019836;28;20044;-88
2022/03/20 10:20:13;;;;;;;31.30;23.80;;;;;;;;;;5010299;28;20038;-87
2022/03/20 10:22:39;;;;;;;32.15;23.10;;;;;;;;;;5024541;28;20041;-86
2022/03/20 10:25:05;;;;;;;28.98;22.75;;;;;;;;;;5016459;28;20140;-89
2022/03/20 10:27:31;;;;;;;28.45;22.88;;;;;;;;;;5025061;28;20042;-86
2022/03/20 10:30:00;;;;;;;30.98;24.58;;;;;;;;;;5021374;28;20563;-88
2022/03/20 10:32:26;;;;;;;29.05;23.50;;;;;;;;;;5009800;28;20051;-89
2022/03/20 10:34:53;;;;;;;31.10;23.83;;;;;;;;;;5023844;28;20095;-87
2022/03/20 10:37:20;;;;;;;26.85;23.17;;;;;;;;;;5013459;28;20041;-86
2022/03/20 10:39:46;;;;;;;29.67;23.45;;;;;;;;;;5012483;28;20038;-88
2022/03/20 10:42:14;;;;;;;28.58;22.63;;;;;;;;;;5029341;28;20072;-87
2022/03/20 10:44:40;;;;;;;31.17;24.73;;;;;;;;;;5031022;28;20120;-89
2022/03/20 10:47:12;;;;;;;31.65;24.40;;;;;;;;;;5033435;28;20052;-88
2022/03/20 10:49:39;;;;;;;27.80;23.25;;;;;;;;;;5032906;28;20057;-85
2022/03/20 10:52:07;;;;;;;27.55;23.20;;;;;;;;;;5029377;28;20367;-89
2022/03/20 10:54:40;;;;;;;30.63;24.20;;;;;;;;;;5020101;28;20048;-90
2022/03/20 10:57:08;;;;;;;31.17;24.65;;;;;;;;;;5029386;28;20053;-88
2022/03/20 10:59:34;;;;;;;30.90;24.20;;;;;;;;;;4996473;28;20038;-88
2022/03/20 11:02:01;;;;;;;29.15;24.13;;;;;;;;;;5013159;28;20038;-88
2022/03/20 11:04:28;;;;;;;28.70;23.40;;;;;;;;;;5013198;28;20120;-90
2022/03/20 11:06:55;;;;;;;29.40;24.02;;;;;;;;;;5012954;28;20038;-88
2022/03/20 11:09:21;;;;;;;30.00;23.77;;;;;;;;;;4997939;28;20042;-89
2022/03/20 11:11:51;;;;;;;28.05;23.38;;;;;;;;;;5029174;28;20073;-89
2022/03/20 11:14:25;;;;;;;30.55;24.88;;;;;;;;;;5013984;28;20030;-89
2022/03/20 11:16:54;;;;;;;30.48;24.20;;;;;;;;;;5022141;28;20046;-88
2022/03/20 11:19:28;;;;;;;29.67;24.20;;;;;;;;;;5013628;28;20049;-88
2022/03/20 11:21:55;;;;;;;29.52;23.88;;;;;;;;;;5015719;28;20045;-90
2022/03/20 11:24:22;;;;;;;29.85;24.05;;;;;;;;;;5012817;28;20145;-89
2022/03/20 11:26:50;;;;;;;30.00;24.25;;;;;;;;;;5012778;28;20053;-88
2022/03/20 11:29:16;;;;;;;30.35;25.23;;;;;;;;;;5012768;28;20038;-89
2022/03/20 11:31:43;;;;;;;29.83;23.80;;;;;;;;;;5014762;28;20073;-89
2022/03/20 11:34:10;;;;;;;31.90;24.88;;;;;;;;;;5012253;28;20046;-89
2022/03/20 11:37:08;;;;;;;29.73;24.75;;;;;;;;;;5022925;28;20042;-88
2022/03/20 11:39:35;;;;;;;30.38;24.63;;;;;;;;;;4990221;28;20494;-88
2022/03/20 11:42:21;;;;;;;30.10;24.80;;;;;;;;;;5002765;28;20049;-89
2022/03/20 11:44:59;;;;;;;29.33;23.88;;;;;;;;;;4996058;28;20143;-89
2022/03/20 11:47:29;;;;;;;29.25;24.67;;;;;;;;;;4994840;28;20100;-90
2022/03/20 11:50:14;;;;;;;29.20;25.10;;;;;;;;;;5028102;28;20045;-90
2022/03/20 11:52:45;;;;;;;30.33;24.25;;;;;;;;;;5011368;28;20037;-88
2022/03/20 11:55:29;;;;;;;30.15;24.02;;;;;;;;;;5011238;28;20038;-87
2022/03/20 11:57:55;;;;;;;28.23;24.08;;;;;;;;;;5011536;28;20045;-90
2022/03/20 12:00:25;;;;;;;26.85;23.63;;;;;;;;;;4995386;28;20077;-89
2022/03/20 12:02:54;;;;;;;29.58;24.50;;;;;;;;;;5046651;28;20038;-86
2022/03/20 12:05:50;;;;;;;29.02;24.13;;;;;;;;;;5014021;28;20045;-89
2022/03/20 12:08:21;;;;;;;30.05;24.92;;;;;;;;;;5030457;28;20038;-90
2022/03/20 12:10:56;;;;;;;29.25;23.73;;;;;;;;;;5026664;28;20409;-86
2022/03/20 12:13:40;;;;;;;28.75;24.42;;;;;;;;;;5016144;28;20069;-89
2022/03/20 12:16:08;;;;;;;28.95;24.33;;;;;;;;;;5010526;28;20049;-89
2022/03/20 12:18:53;;;;;;;30.17;24.20;;;;;;;;;;5010967;28;20535;-90
2022/03/20 12:21:39;;;;;;;30.55;24.27;;;;;;;;;;5003458;28;20401;-88
2022/03/20 12:24:25;;;;;;;41.50;24.65;;;;;;;;;;5026651;28;20054;-88
2022/03/20 12:26:53;;;;;;;29.73;24.90;;;;;;;;;;5010850;28;20049;-87
2022/03/20 12:29:33;;;;;;;32.22;25.92;;;;;;;;;;4994162;28;20317;-87
2022/03/20 12:32:01;;;;;;;31.33;24.23;;;;;;;;;;5043273;28;20119;-89
2022/03/20 12:34:28;;;;;;;30.00;24.25;;;;;;;;;;5026127;28;20038;-88
2022/03/20 12:36:54;;;;;;;27.83;23.38;;;;;;;;;;5017269;28;20041;-88
2022/03/20 12:39:39;;;;;;;29.23;24.45;;;;;;;;;;5013785;28;20045;-88
2022/03/20 12:42:15;;;;;;;30.05;23.92;;;;;;;;;;5010532;28;20038;-89
2022/03/20 12:44:44;;;;;;;31.73;25.33;;;;;;;;;;5010111;28;20057;-88
2022/03/20 12:47:10;;;;;;;28.92;24.25;;;;;;;;;;5005137;28;20045;-89
2022/03/20 12:49:37;;;;;;;26.63;23.35;;;;;;;;;;5026392;28;20042;-88
2022/03/20 12:52:03;;;;;;;29.23;24.42;;;;;;;;;;4997222;28;20087;-89
2022/03/20 12:54:30;;;;;;;29.00;24.10;;;;;;;;;;5026435;28;20064;-88
2022/03/20 12:56:58;;;;;;;28.33;24.05;;;;;;;;;;4994090;28;20045;-90
2022/03/20 12:59:24;;;;;;;30.42;24.92;;;;;;;;;;5008649;28;20420;-89
2022/03/20 13:01:50;;;;;;;27.67;23.70;;;;;;;;;;5026340;28;20080;-88
2022/03/20 13:04:19;;;;;;;31.70;25.70;;;;;;;;;;5032986;28;20493;-89
2022/03/20 13:06:45;;;;;;;30.80;25.23;;;;;;;;;;5028605;28;20045;-88
2022/03/20 13:09:14;;;;;;;30.48;24.60;;;;;;;;;;5025297;28;20042;-89
2022/03/20 13:11:53;;;;;;;31.67;25.20;;;;;;;;;;5011917;28;20540;-89
2022/03/20 13:14:21;;;;;;;29.20;24.33;;;;;;;;;;5025684;28;20133;-88
2022/03/20 13:16:54;;;;;;;29.23;24.25;;;;;;;;;;5018358;28;20045;-88
2022/03/20 13:19:26;;;;;;;30.67;24.75;;;;;;;;;;5010359;28;20045;-88
2022/03/20 13:21:52;;;;;;;28.42;24.33;;;;;;;;;;5028860;28;20042;-88
2022/03/20 13:24:50;;;;;;;31.65;24.85;;;;;;;;;;5019458;28;20061;-88
2022/03/20 13:27:17;;;;;;;30.27;25.00;;;;;;;;;;4999051;28;20054;-88
2022/03/20 13:29:53;;;;;;;29.02;23.88;;;;;;;;;;5029609;28;20489;-85
2022/03/20 13:32:21;;;;;;;29.70;24.27;;;;;;;;;;5018101;28;20045;-88
2022/03/20 13:34:48;;;;;;;30.50;23.92;;;;;;;;;;5024088;28;20048;-87
2022/03/20 13:37:15;;;;;;;30.10;24.15;;;;;;;;;;5028990;28;20039;-88
2022/03/20 13:39:50;;;;;;;28.52;23.83;;;;;;;;;;5025491;28;20034;-89
2022/03/20 13:42:21;;;;;;;28.90;24.45;;;;;;;;;;5009219;28;20121;-88
2022/03/20 13:44:48;;;;;;;28.77;24.48;;;;;;;;;;5008666;28;20044;-88
2022/03/20 13:47:15;;;;;;;30.00;24.83;;;;;;;;;;5030125;28;20045;-89
2022/03/20 13:49:42;;;;;;;30.85;24.95;;;;;;;;;;5020628;28;20052;-88
2022/03/20 13:52:10;;;;;;;28.30;23.23;;;;;;;;;;5023477;28;20532;-88
2022/03/20 13:54:39;;;;;;;32.05;24.85;;;;;;;;;;5012870;28;20041;-89
2022/03/20 13:57:07;;;;;;;28.52;24.70;;;;;;;;;;5029746;28;20095;-89
2022/03/20 13:59:47;;;;;;;30.65;24.65;;;;;;;;;;5026112;28;20132;-87
2022/03/20 14:02:13;;;;;;;31.48;25.02;;;;;;;;;;5007157;28;20041;-88
2022/03/20 14:04:39;;;;;;;29.27;24.38;;;;;;;;;;5013043;28;20127;-88
2022/03/20 14:07:05;;;;;;;29.75;24.35;;;;;;;;;;5029570;28;20042;-87
2022/03/20 14:09:35;;;;;;;28.90;24.23;;;;;;;;;;5030591;28;20037;-89
2022/03/20 14:12:20;;;;;;;27.75;23.35;;;;;;;;;;5030656;28;20128;-87
2022/03/20 14:14:53;;;;;;;29.50;24.83;;;;;;;;;;5027184;28;20034;-87
2022/03/20 14:17:19;;;;;;;29.60;24.02;;;;;;;;;;5010350;28;20477;-89
2022/03/20 14:19:46;;;;;;;31.10;24.77;;;;;;;;;;4998906;28;20513;-89
2022/03/20 14:22:12;;;;;;;28.00;23.02;;;;;;;;;;5019380;28;20461;-87
2022/03/20 14:24:50;;;;;;;29.90;23.83;;;;;;;;;;5049067;28;20061;-90
2022/03/20 14:27:25;;;;;;;31.90;24.00;;;;;;;;;;5020806;28;20048;-90
2022/03/20 14:40:53;;;;;;;30.52;23.67;;;;;;;;;;5038742;28;20117;-90
2022/03/20 14:43:24;;;;;;;28.85;23.60;;;;;;;;;;5034288;28;20136;-89
2022/03/20 14:45:51;;;;;;;33.50;24.33;;;;;;;;;;5000919;28;20038;-90
2022/03/20 14:48:19;;;;;;;29.38;23.83;;;;;;;;;;5020038;28;20053;-90
2022/03/20 14:50:45;;;;;;;28.25;24.45;;;;;;;;;;5022715;28;20486;-90
2022/03/20 14:53:20;;;;;;;32.15;24.20;;;;;;;;;;5035760;28;20037;-87
2022/03/20 14:55:46;;;;;;;30.05;24.40;;;;;;;;;;5042448;28;20120;-87
2022/03/20 14:58:12;;;;;;;32.65;25.63;;;;;;;;;;5036346;28;20577;-85
2022/03/20 15:00:38;;;;;;;31.52;24.23;;;;;;;;;;5032270;28;20041;-90
2022/03/20 15:03:04;;;;;;;29.60;24.77;;;;;;;;;;5058666;28;20137;-88
2022/03/20 15:05:30;;;;;;;27.52;22.63;;;;;;;;;;5032717;28;20156;-88
2022/03/20 15:13:45;;;;;;;30.42;24.40;;;;;;;;;;4997211;28;20038;-89
2022/03/20 15:16:11;;;;;;;32.53;23.10;;;;;;;;;;5032624;28;20057;-88